sensor_id;sensor_type;location;lat;lon;timestamp;temperature;humidity
1992;DHT22;997;48.448;8.924;2023-08-30T03:05:32;13.50;99.90
1992;DHT22;997;48.448;8.924;2023-08-30T03:13:13;13.70;99.90
1992;DHT22;997;48.448;8.924;2023-08-30T03:15:39;13.60;99.90
1992;DHT22;997;48.448;8.924;2023-08-30T03:23:19;13.60;99.90
1992;DHT22;997;48.448;8.924;2023-08-30T03:28:29;13.50;99.90
1992;DHT22;997;48.448;8.924;2023-08-30T03:38:41;13.50;99.90
1992;DHT22;997;48.448;8.924;2023-08-30T07:02:18;13.90;99.90
1992;DHT22;997;48.448;8.924;2023-08-30T07:04:44;13.90;99.90
1992;DHT22;997;48.448;8.924;2023-08-30T07:07:12;14.10;99.90
1992;DHT22;997;48.448;8.924;2023-08-30T07:09:38;14.10;99.90
1992;DHT22;997;48.448;8.924;2023-08-30T07:12:04;14.20;99.90
1992;DHT22;997;48.448;8.924;2023-08-30T07:14:30;14.20;99.90
1992;DHT22;997;48.448;8.924;2023-08-30T07:16:55;14.20;99.90
1992;DHT22;997;48.448;8.924;2023-08-30T07:19:21;14.20;99.90
1992;DHT22;997;48.448;8.924;2023-08-30T07:21:47;14.30;99.90
1992;DHT22;997;48.448;8.924;2023-08-30T07:24:13;14.40;99.90
1992;DHT22;997;48.448;8.924;2023-08-30T07:26:39;14.50;99.90
1992;DHT22;997;48.448;8.924;2023-08-30T07:29:04;14.50;99.90
1992;DHT22;997;48.448;8.924;2023-08-30T07:31:31;14.60;99.90
1992;DHT22;997;48.448;8.924;2023-08-30T07:33:57;14.70;99.90
1992;DHT22;997;48.448;8.924;2023-08-30T07:36:27;14.70;99.90
1992;DHT22;997;48.448;8.924;2023-08-30T07:38:54;14.90;99.90
1992;DHT22;997;48.448;8.924;2023-08-30T07:41:20;15.00;99.90
1992;DHT22;997;48.448;8.924;2023-08-30T07:43:45;15.10;99.90
1992;DHT22;997;48.448;8.924;2023-08-30T07:46:11;15.20;99.90
1992;DHT22;997;48.448;8.924;2023-08-30T07:48:37;15.20;99.90
1992;DHT22;997;48.448;8.924;2023-08-30T07:51:03;15.20;99.90
1992;DHT22;997;48.448;8.924;2023-08-30T07:53:28;15.20;99.90
1992;DHT22;997;48.448;8.924;2023-08-30T07:55:54;15.20;99.90
1992;DHT22;997;48.448;8.924;2023-08-30T07:58:19;15.30;99.90
1992;DHT22;997;48.448;8.924;2023-08-30T08:00:45;15.30;99.90
1992;DHT22;997;48.448;8.924;2023-08-30T08:03:11;15.50;99.90
1992;DHT22;997;48.448;8.924;2023-08-30T08:05:36;15.50;99.90
1992;DHT22;997;48.448;8.924;2023-08-30T08:08:03;15.50;99.90
1992;DHT22;997;48.448;8.924;2023-08-30T08:10:32;15.50;99.90
1992;DHT22;997;48.448;8.924;2023-08-30T08:13:01;15.60;99.90
1992;DHT22;997;48.448;8.924;2023-08-30T08:15:29;15.70;99.90
1992;DHT22;997;48.448;8.924;2023-08-30T08:17:59;15.70;99.90
1992;DHT22;997;48.448;8.924;2023-08-30T08:20:25;15.80;99.90
1992;DHT22;997;48.448;8.924;2023-08-30T08:22:51;15.80;99.90
1992;DHT22;997;48.448;8.924;2023-08-30T08:25:17;15.80;99.90
1992;DHT22;997;48.448;8.924;2023-08-30T08:27:43;16.00;99.90
1992;DHT22;997;48.448;8.924;2023-08-30T08:30:09;16.00;99.90
1992;DHT22;997;48.448;8.924;2023-08-30T08:32:35;16.10;99.90
1992;DHT22;997;48.448;8.924;2023-08-30T08:35:01;16.10;99.90
1992;DHT22;997;48.448;8.924;2023-08-30T08:37:28;16.20;99.90
1992;DHT22;997;48.448;8.924;2023-08-30T08:39:53;16.20;99.90
1992;DHT22;997;48.448;8.924;2023-08-30T08:42:19;16.30;99.90
1992;DHT22;997;48.448;8.924;2023-08-30T08:44:53;16.40;99.90
1992;DHT22;997;48.448;8.924;2023-08-30T08:47:20;16.50;99.90
1992;DHT22;997;48.448;8.924;2023-08-30T08:49:50;16.50;99.90
1992;DHT22;997;48.448;8.924;2023-08-30T08:52:16;16.60;99.90
1992;DHT22;997;48.448;8.924;2023-08-30T08:54:43;16.70;99.90
1992;DHT22;997;48.448;8.924;2023-08-30T08:57:09;16.90;99.90
1992;DHT22;997;48.448;8.924;2023-08-30T08:59:35;17.00;99.90
1992;DHT22;997;48.448;8.924;2023-08-30T09:02:02;17.20;99.90
1992;DHT22;997;48.448;8.924;2023-08-30T09:04:30;17.20;99.90
1992;DHT22;997;48.448;8.924;2023-08-30T09:06:56;17.20;99.90
1992;DHT22;997;48.448;8.924;2023-08-30T09:09:23;17.30;99.90
1992;DHT22;997;48.448;8.924;2023-08-30T09:11:49;17.40;99.90
1992;DHT22;997;48.448;8.924;2023-08-30T09:14:15;17.40;99.90
1992;DHT22;997;48.448;8.924;2023-08-30T09:16:41;17.40;99.90
1992;DHT22;997;48.448;8.924;2023-08-30T09:19:06;17.50;99.90
1992;DHT22;997;48.448;8.924;2023-08-30T09:21:33;17.70;99.90
1992;DHT22;997;48.448;8.924;2023-08-30T09:24:06;17.80;99.90
1992;DHT22;997;48.448;8.924;2023-08-30T09:26:33;17.90;99.90
1992;DHT22;997;48.448;8.924;2023-08-30T09:29:08;17.90;99.90
1992;DHT22;997;48.448;8.924;2023-08-30T09:31:35;17.90;99.90
1992;DHT22;997;48.448;8.924;2023-08-30T09:34:01;17.90;99.90
1992;DHT22;997;48.448;8.924;2023-08-30T09:36:41;18.00;99.90
1992;DHT22;997;48.448;8.924;2023-08-30T09:39:08;17.90;99.90
1992;DHT22;997;48.448;8.924;2023-08-30T09:41:48;17.90;99.90
1992;DHT22;997;48.448;8.924;2023-08-30T09:44:18;17.90;99.90
1992;DHT22;997;48.448;8.924;2023-08-30T09:46:45;18.10;99.90
1992;DHT22;997;48.448;8.924;2023-08-30T09:49:11;18.00;99.90
1992;DHT22;997;48.448;8.924;2023-08-30T09:51:41;18.00;99.90
1992;DHT22;997;48.448;8.924;2023-08-30T09:54:16;18.10;99.90
1992;DHT22;997;48.448;8.924;2023-08-30T09:56:43;18.10;99.90
1992;DHT22;997;48.448;8.924;2023-08-30T09:59:11;18.20;99.90
1992;DHT22;997;48.448;8.924;2023-08-30T10:01:40;18.40;99.90
1992;DHT22;997;48.448;8.924;2023-08-30T10:04:10;18.50;99.90
1992;DHT22;997;48.448;8.924;2023-08-30T10:06:37;18.50;99.90
1992;DHT22;997;48.448;8.924;2023-08-30T10:09:03;18.60;99.90
1992;DHT22;997;48.448;8.924;2023-08-30T10:11:32;18.80;99.90
1992;DHT22;997;48.448;8.924;2023-08-30T10:14:00;18.70;99.90
1992;DHT22;997;48.448;8.924;2023-08-30T10:16:27;18.80;99.90
1992;DHT22;997;48.448;8.924;2023-08-30T10:19:09;18.70;99.90
1992;DHT22;997;48.448;8.924;2023-08-30T10:21:36;18.60;99.90
1992;DHT22;997;48.448;8.924;2023-08-30T10:24:04;18.70;99.90
1992;DHT22;997;48.448;8.924;2023-08-30T10:26:31;18.80;99.90
1992;DHT22;997;48.448;8.924;2023-08-30T10:28:58;18.90;99.90
1992;DHT22;997;48.448;8.924;2023-08-30T10:31:26;19.00;99.90
1992;DHT22;997;48.448;8.924;2023-08-30T10:33:55;19.20;99.90
1992;DHT22;997;48.448;8.924;2023-08-30T10:36:27;19.20;99.90
1992;DHT22;997;48.448;8.924;2023-08-30T10:38:54;19.40;99.90
1992;DHT22;997;48.448;8.924;2023-08-30T10:41:25;19.50;99.90
1992;DHT22;997;48.448;8.924;2023-08-30T10:44:01;19.60;99.90
1992;DHT22;997;48.448;8.924;2023-08-30T10:46:33;19.60;99.90
1992;DHT22;997;48.448;8.924;2023-08-30T10:49:28;19.50;99.90
1992;DHT22;997;48.448;8.924;2023-08-30T10:51:57;19.40;99.90
1992;DHT22;997;48.448;8.924;2023-08-30T10:54:24;19.40;99.90
1992;DHT22;997;48.448;8.924;2023-08-30T10:56:58;19.40;99.90
1992;DHT22;997;48.448;8.924;2023-08-30T10:59:27;19.40;99.90
1992;DHT22;997;48.448;8.924;2023-08-30T11:01:53;19.60;99.90
1992;DHT22;997;48.448;8.924;2023-08-30T11:04:19;19.70;99.90
1992;DHT22;997;48.448;8.924;2023-08-30T11:06:48;19.80;99.90
1992;DHT22;997;48.448;8.924;2023-08-30T11:09:15;19.90;99.90
1992;DHT22;997;48.448;8.924;2023-08-30T11:11:48;20.00;99.90
1992;DHT22;997;48.448;8.924;2023-08-30T11:14:15;20.10;99.90
1992;DHT22;997;48.448;8.924;2023-08-30T11:16:41;20.10;99.90
1992;DHT22;997;48.448;8.924;2023-08-30T11:19:08;20.20;99.90
1992;DHT22;997;48.448;8.924;2023-08-30T11:21:36;20.20;99.90
1992;DHT22;997;48.448;8.924;2023-08-30T11:24:06;20.20;99.90
1992;DHT22;997;48.448;8.924;2023-08-30T11:26:32;20.40;99.90
1992;DHT22;997;48.448;8.924;2023-08-30T11:29:04;20.40;99.90
1992;DHT22;997;48.448;8.924;2023-08-30T11:31:30;20.50;99.90
1992;DHT22;997;48.448;8.924;2023-08-30T11:33:57;20.60;99.90
1992;DHT22;997;48.448;8.924;2023-08-30T11:36:30;20.60;99.90
1992;DHT22;997;48.448;8.924;2023-08-30T11:38:57;20.50;99.90
1992;DHT22;997;48.448;8.924;2023-08-30T11:41:23;20.60;99.90
1992;DHT22;997;48.448;8.924;2023-08-30T11:43:52;20.70;99.90
1992;DHT22;997;48.448;8.924;2023-08-30T11:46:19;20.90;99.90
1992;DHT22;997;48.448;8.924;2023-08-30T11:48:46;21.00;99.90
1992;DHT22;997;48.448;8.924;2023-08-30T11:51:13;21.00;99.90
1992;DHT22;997;48.448;8.924;2023-08-30T11:53:39;21.00;99.90
1992;DHT22;997;48.448;8.924;2023-08-30T11:56:06;20.90;99.90
1992;DHT22;997;48.448;8.924;2023-08-30T11:58:36;21.10;99.90
1992;DHT22;997;48.448;8.924;2023-08-30T12:01:03;21.10;99.90
1992;DHT22;997;48.448;8.924;2023-08-30T12:03:30;21.10;99.90
1992;DHT22;997;48.448;8.924;2023-08-30T12:05:56;21.00;99.90
1992;DHT22;997;48.448;8.924;2023-08-30T12:08:28;21.00;99.90
1992;DHT22;997;48.448;8.924;2023-08-30T12:10:54;21.00;99.90
1992;DHT22;997;48.448;8.924;2023-08-30T12:13:24;21.10;99.90
1992;DHT22;997;48.448;8.924;2023-08-30T12:15:54;21.20;99.90
1992;DHT22;997;48.448;8.924;2023-08-30T12:18:26;21.20;99.90
1992;DHT22;997;48.448;8.924;2023-08-30T12:21:02;21.20;99.90
1992;DHT22;997;48.448;8.924;2023-08-30T12:23:32;21.30;99.90
1992;DHT22;997;48.448;8.924;2023-08-30T12:26:03;21.20;99.90
1992;DHT22;997;48.448;8.924;2023-08-30T12:28:31;21.10;99.90
1992;DHT22;997;48.448;8.924;2023-08-30T12:30:58;21.20;99.90
1992;DHT22;997;48.448;8.924;2023-08-30T12:33:24;21.30;99.90
1992;DHT22;997;48.448;8.924;2023-08-30T12:35:54;21.40;99.90
1992;DHT22;997;48.448;8.924;2023-08-30T12:38:20;21.30;99.90
1992;DHT22;997;48.448;8.924;2023-08-30T12:40:48;21.20;99.90
1992;DHT22;997;48.448;8.924;2023-08-30T12:43:15;21.20;99.90
1992;DHT22;997;48.448;8.924;2023-08-30T12:45:41;21.10;99.90
1992;DHT22;997;48.448;8.924;2023-08-30T12:48:12;21.10;99.90
1992;DHT22;997;48.448;8.924;2023-08-30T12:50:39;21.10;99.90
1992;DHT22;997;48.448;8.924;2023-08-30T12:53:06;21.20;99.90
1992;DHT22;997;48.448;8.924;2023-08-30T12:55:32;21.20;99.90
1992;DHT22;997;48.448;8.924;2023-08-30T12:57:58;21.30;99.90
1992;DHT22;997;48.448;8.924;2023-08-30T13:00:24;21.40;99.90
1992;DHT22;997;48.448;8.924;2023-08-30T13:02:50;21.50;99.90
1992;DHT22;997;48.448;8.924;2023-08-30T13:05:16;21.50;99.90
1992;DHT22;997;48.448;8.924;2023-08-30T13:07:42;21.40;99.90
1992;DHT22;997;48.448;8.924;2023-08-30T13:10:08;21.50;99.90
1992;DHT22;997;48.448;8.924;2023-08-30T13:12:35;21.50;99.90
1992;DHT22;997;48.448;8.924;2023-08-30T13:15:01;21.80;99.90
1992;DHT22;997;48.448;8.924;2023-08-30T13:17:27;22.00;99.90
1992;DHT22;997;48.448;8.924;2023-08-30T13:19:52;22.30;99.90
1992;DHT22;997;48.448;8.924;2023-08-30T13:22:18;22.40;99.90
1992;DHT22;997;48.448;8.924;2023-08-30T13:24:44;22.50;99.90
1992;DHT22;997;48.448;8.924;2023-08-30T13:27:10;22.60;99.90
1992;DHT22;997;48.448;8.924;2023-08-30T13:29:36;22.90;99.90
1992;DHT22;997;48.448;8.924;2023-08-30T13:32:02;22.80;99.90
1992;DHT22;997;48.448;8.924;2023-08-30T13:34:28;22.70;99.90
1992;DHT22;997;48.448;8.924;2023-08-30T13:36:54;22.90;99.90
1992;DHT22;997;48.448;8.924;2023-08-30T13:39:20;22.90;99.90
1992;DHT22;997;48.448;8.924;2023-08-30T13:41:46;23.00;99.90
1992;DHT22;997;48.448;8.924;2023-08-30T13:44:13;23.30;99.90
1992;DHT22;997;48.448;8.924;2023-08-30T13:46:39;23.50;99.90
1992;DHT22;997;48.448;8.924;2023-08-30T13:49:04;23.70;99.90
1992;DHT22;997;48.448;8.924;2023-08-30T13:51:30;23.70;99.90
1992;DHT22;997;48.448;8.924;2023-08-30T13:53:56;23.80;99.90
1992;DHT22;997;48.448;8.924;2023-08-30T13:56:22;23.90;99.90
1992;DHT22;997;48.448;8.924;2023-08-30T13:58:48;23.90;99.90
1992;DHT22;997;48.448;8.924;2023-08-30T14:01:14;24.00;99.90
1992;DHT22;997;48.448;8.924;2023-08-30T14:03:40;24.00;99.90
1992;DHT22;997;48.448;8.924;2023-08-30T14:06:05;24.00;99.90
1992;DHT22;997;48.448;8.924;2023-08-30T14:08:32;24.00;99.90
1992;DHT22;997;48.448;8.924;2023-08-30T14:10:57;23.90;99.90
1992;DHT22;997;48.448;8.924;2023-08-30T14:13:24;23.70;99.90
1992;DHT22;997;48.448;8.924;2023-08-30T14:15:49;23.50;99.90
1992;DHT22;997;48.448;8.924;2023-08-30T14:18:16;23.60;99.90
1992;DHT22;997;48.448;8.924;2023-08-30T14:20:42;23.80;99.90
1992;DHT22;997;48.448;8.924;2023-08-30T14:23:08;24.00;99.90
1992;DHT22;997;48.448;8.924;2023-08-30T14:25:34;24.20;99.90
1992;DHT22;997;48.448;8.924;2023-08-30T14:28:00;24.30;99.90
1992;DHT22;997;48.448;8.924;2023-08-30T14:30:26;24.30;99.90
1992;DHT22;997;48.448;8.924;2023-08-30T14:32:52;24.00;99.90
1992;DHT22;997;48.448;8.924;2023-08-30T14:35:18;23.90;99.90
1992;DHT22;997;48.448;8.924;2023-08-30T14:37:46;23.50;99.90
1992;DHT22;997;48.448;8.924;2023-08-30T14:40:13;23.50;99.90
1992;DHT22;997;48.448;8.924;2023-08-30T14:42:39;23.40;99.90
1992;DHT22;997;48.448;8.924;2023-08-30T14:45:06;23.40;99.90
1992;DHT22;997;48.448;8.924;2023-08-30T14:47:33;23.20;99.90
1992;DHT22;997;48.448;8.924;2023-08-30T14:49:59;23.00;99.90
1992;DHT22;997;48.448;8.924;2023-08-30T14:52:26;22.90;99.90
1992;DHT22;997;48.448;8.924;2023-08-30T14:54:52;22.80;99.90
1992;DHT22;997;48.448;8.924;2023-08-30T14:57:18;22.70;99.90
1992;DHT22;997;48.448;8.924;2023-08-30T14:59:43;22.40;99.90
1992;DHT22;997;48.448;8.924;2023-08-30T15:02:09;22.20;99.90
1992;DHT22;997;48.448;8.924;2023-08-30T15:04:34;22.00;99.90
1992;DHT22;997;48.448;8.924;2023-08-30T15:07:00;21.70;99.90
1992;DHT22;997;48.448;8.924;2023-08-30T15:09:26;21.60;99.90
1992;DHT22;997;48.448;8.924;2023-08-30T15:11:51;21.20;99.90
1992;DHT22;997;48.448;8.924;2023-08-30T15:14:17;21.10;99.90
1992;DHT22;997;48.448;8.924;2023-08-30T15:16:43;21.00;99.90
1992;DHT22;997;48.448;8.924;2023-08-30T15:19:08;21.00;99.90
1992;DHT22;997;48.448;8.924;2023-08-30T15:21:35;20.90;99.90
1992;DHT22;997;48.448;8.924;2023-08-30T15:24:01;20.90;99.90
1992;DHT22;997;48.448;8.924;2023-08-30T15:26:26;21.00;99.90
1992;DHT22;997;48.448;8.924;2023-08-30T15:28:52;21.40;99.90
1992;DHT22;997;48.448;8.924;2023-08-30T15:31:18;22.00;99.90
1992;DHT22;997;48.448;8.924;2023-08-30T15:33:46;22.90;99.90
1992;DHT22;997;48.448;8.924;2023-08-30T15:36:13;23.80;99.90
1992;DHT22;997;48.448;8.924;2023-08-30T15:38:39;23.90;99.90
1992;DHT22;997;48.448;8.924;2023-08-30T15:41:11;23.90;99.90
1992;DHT22;997;48.448;8.924;2023-08-30T15:43:40;23.90;99.90
1992;DHT22;997;48.448;8.924;2023-08-30T15:46:11;23.80;99.90
1992;DHT22;997;48.448;8.924;2023-08-30T15:48:39;23.80;99.90
1992;DHT22;997;48.448;8.924;2023-08-30T15:51:05;24.00;99.90
1992;DHT22;997;48.448;8.924;2023-08-30T15:53:30;24.60;99.90
1992;DHT22;997;48.448;8.924;2023-08-30T15:55:56;25.20;99.90
1992;DHT22;997;48.448;8.924;2023-08-30T15:58:22;25.70;99.90
1992;DHT22;997;48.448;8.924;2023-08-30T16:00:47;26.00;99.90
1992;DHT22;997;48.448;8.924;2023-08-30T16:03:16;26.20;99.90
1992;DHT22;997;48.448;8.924;2023-08-30T16:05:43;26.50;99.90
1992;DHT22;997;48.448;8.924;2023-08-30T16:08:09;26.50;99.90
1992;DHT22;997;48.448;8.924;2023-08-30T16:10:35;26.50;99.90
1992;DHT22;997;48.448;8.924;2023-08-30T16:13:00;26.00;99.90
1992;DHT22;997;48.448;8.924;2023-08-30T16:15:26;25.30;99.90
1992;DHT22;997;48.448;8.924;2023-08-30T16:17:53;24.10;99.90
1992;DHT22;997;48.448;8.924;2023-08-30T16:20:19;23.40;99.90
1992;DHT22;997;48.448;8.924;2023-08-30T16:22:45;22.80;99.90
1992;DHT22;997;48.448;8.924;2023-08-30T16:25:11;22.50;99.90
1992;DHT22;997;48.448;8.924;2023-08-30T16:27:37;22.80;99.90
1992;DHT22;997;48.448;8.924;2023-08-30T16:30:03;23.20;99.90
1992;DHT22;997;48.448;8.924;2023-08-30T16:32:30;23.60;99.90
1992;DHT22;997;48.448;8.924;2023-08-30T16:34:56;24.20;99.90
1992;DHT22;997;48.448;8.924;2023-08-30T16:37:22;24.70;99.90
1992;DHT22;997;48.448;8.924;2023-08-30T16:39:48;25.00;99.90
1992;DHT22;997;48.448;8.924;2023-08-30T16:42:13;25.40;99.90
1992;DHT22;997;48.448;8.924;2023-08-30T16:44:39;25.50;99.90
1992;DHT22;997;48.448;8.924;2023-08-30T16:47:05;25.20;99.90
1992;DHT22;997;48.448;8.924;2023-08-30T16:49:31;25.10;99.90
1992;DHT22;997;48.448;8.924;2023-08-30T16:51:56;24.70;99.90
1992;DHT22;997;48.448;8.924;2023-08-30T16:54:22;24.20;99.90
1992;DHT22;997;48.448;8.924;2023-08-30T16:56:48;23.50;99.90
1992;DHT22;997;48.448;8.924;2023-08-30T16:59:13;23.30;99.90
1992;DHT22;997;48.448;8.924;2023-08-30T17:01:40;23.00;99.90
1992;DHT22;997;48.448;8.924;2023-08-30T17:04:07;22.50;99.90
1992;DHT22;997;48.448;8.924;2023-08-30T17:06:33;22.10;99.90
1992;DHT22;997;48.448;8.924;2023-08-30T17:09:03;21.90;99.90
1992;DHT22;997;48.448;8.924;2023-08-30T17:11:30;21.70;99.90
1992;DHT22;997;48.448;8.924;2023-08-30T17:13:56;21.30;99.90
1992;DHT22;997;48.448;8.924;2023-08-30T17:16:23;21.20;99.90
1992;DHT22;997;48.448;8.924;2023-08-30T17:18:49;21.10;99.90
1992;DHT22;997;48.448;8.924;2023-08-30T17:21:15;21.00;99.90
1992;DHT22;997;48.448;8.924;2023-08-30T17:23:40;20.90;99.90
1992;DHT22;997;48.448;8.924;2023-08-30T17:26:07;20.90;99.90
1992;DHT22;997;48.448;8.924;2023-08-30T17:28:33;20.80;99.90
1992;DHT22;997;48.448;8.924;2023-08-30T17:30:59;20.70;99.90
1992;DHT22;997;48.448;8.924;2023-08-30T17:33:25;20.60;99.90
1992;DHT22;997;48.448;8.924;2023-08-30T17:35:54;20.40;99.90
1992;DHT22;997;48.448;8.924;2023-08-30T17:38:20;20.40;99.90
1992;DHT22;997;48.448;8.924;2023-08-30T17:40:46;20.20;99.90
1992;DHT22;997;48.448;8.924;2023-08-30T17:43:12;20.00;99.90
1992;DHT22;997;48.448;8.924;2023-08-30T17:45:37;19.90;99.90
1992;DHT22;997;48.448;8.924;2023-08-30T17:48:03;19.80;99.90
1992;DHT22;997;48.448;8.924;2023-08-30T17:50:30;19.60;99.90
1992;DHT22;997;48.448;8.924;2023-08-30T17:52:56;19.40;99.90
1992;DHT22;997;48.448;8.924;2023-08-30T17:55:22;19.20;99.90
1992;DHT22;997;48.448;8.924;2023-08-30T17:57:48;19.10;99.90
1992;DHT22;997;48.448;8.924;2023-08-30T18:00:15;19.00;99.90
1992;DHT22;997;48.448;8.924;2023-08-30T18:02:43;18.70;99.90
1992;DHT22;997;48.448;8.924;2023-08-30T18:05:09;18.60;99.90
1992;DHT22;997;48.448;8.924;2023-08-30T18:07:36;18.60;99.90
1992;DHT22;997;48.448;8.924;2023-08-30T18:10:02;18.50;99.90
1992;DHT22;997;48.448;8.924;2023-08-30T18:12:29;18.60;99.90
1992;DHT22;997;48.448;8.924;2023-08-30T18:14:55;18.70;99.90
1992;DHT22;997;48.448;8.924;2023-08-30T18:17:21;18.80;99.90
1992;DHT22;997;48.448;8.924;2023-08-30T18:19:47;18.90;99.90
1992;DHT22;997;48.448;8.924;2023-08-30T18:22:14;18.90;99.90
1992;DHT22;997;48.448;8.924;2023-08-30T18:24:40;18.80;99.90
1992;DHT22;997;48.448;8.924;2023-08-30T18:27:07;18.80;99.90
1992;DHT22;997;48.448;8.924;2023-08-30T18:29:33;18.80;99.90
1992;DHT22;997;48.448;8.924;2023-08-30T18:32:00;18.80;99.90
1992;DHT22;997;48.448;8.924;2023-08-30T18:34:26;18.70;99.90
1992;DHT22;997;48.448;8.924;2023-08-30T18:36:52;18.60;99.90
1992;DHT22;997;48.448;8.924;2023-08-30T18:39:19;18.40;99.90
1992;DHT22;997;48.448;8.924;2023-08-30T18:41:47;18.30;99.90
1992;DHT22;997;48.448;8.924;2023-08-30T18:44:13;18.20;99.90
1992;DHT22;997;48.448;8.924;2023-08-30T18:46:38;18.20;99.90
1992;DHT22;997;48.448;8.924;2023-08-30T18:49:04;18.10;99.90
1992;DHT22;997;48.448;8.924;2023-08-30T18:51:30;18.10;99.90
1992;DHT22;997;48.448;8.924;2023-08-30T18:53:55;18.10;99.90
1992;DHT22;997;48.448;8.924;2023-08-30T18:56:21;18.00;99.90
1992;DHT22;997;48.448;8.924;2023-08-30T18:58:47;18.00;99.90
1992;DHT22;997;48.448;8.924;2023-08-30T19:01:13;17.90;99.90
1992;DHT22;997;48.448;8.924;2023-08-30T19:03:40;17.80;99.90
1992;DHT22;997;48.448;8.924;2023-08-30T19:06:06;17.70;99.90
1992;DHT22;997;48.448;8.924;2023-08-30T19:08:33;17.60;99.90
1992;DHT22;997;48.448;8.924;2023-08-30T19:11:00;17.60;99.90
1992;DHT22;997;48.448;8.924;2023-08-30T19:13:25;17.60;99.90
1992;DHT22;997;48.448;8.924;2023-08-30T19:15:51;17.50;99.90
1992;DHT22;997;48.448;8.924;2023-08-30T19:18:17;17.50;99.90
1992;DHT22;997;48.448;8.924;2023-08-30T19:20:42;17.50;99.90
1992;DHT22;997;48.448;8.924;2023-08-30T19:23:08;17.50;99.90
1992;DHT22;997;48.448;8.924;2023-08-30T19:32:22;17.40;99.90
1992;DHT22;997;48.448;8.924;2023-08-30T19:34:48;17.00;99.90
1992;DHT22;997;48.448;8.924;2023-08-30T19:37:13;16.80;99.90
1992;DHT22;997;48.448;8.924;2023-08-30T19:39:39;16.50;99.90
1992;DHT22;997;48.448;8.924;2023-08-30T19:42:05;16.60;99.90
1992;DHT22;997;48.448;8.924;2023-08-30T19:44:30;16.60;99.90
1992;DHT22;997;48.448;8.924;2023-08-30T19:46:56;16.60;99.90
1992;DHT22;997;48.448;8.924;2023-08-30T19:49:23;16.60;99.90
1992;DHT22;997;48.448;8.924;2023-08-30T19:51:49;16.60;99.90
1992;DHT22;997;48.448;8.924;2023-08-30T19:54:15;16.60;99.90
1992;DHT22;997;48.448;8.924;2023-08-30T19:56:41;16.80;99.90
1992;DHT22;997;48.448;8.924;2023-08-30T19:59:06;16.70;99.90
1992;DHT22;997;48.448;8.924;2023-08-30T20:01:32;16.80;99.90
1992;DHT22;997;48.448;8.924;2023-08-30T20:04:00;16.70;99.90
1992;DHT22;997;48.448;8.924;2023-08-30T20:06:26;16.70;99.90
1992;DHT22;997;48.448;8.924;2023-08-30T20:08:52;16.70;99.90
1992;DHT22;997;48.448;8.924;2023-08-30T20:11:17;16.70;99.90
1992;DHT22;997;48.448;8.924;2023-08-30T20:13:43;16.70;99.90
1992;DHT22;997;48.448;8.924;2023-08-30T20:16:09;16.70;99.90
1992;DHT22;997;48.448;8.924;2023-08-30T20:18:35;16.60;99.90
1992;DHT22;997;48.448;8.924;2023-08-30T20:21:02;16.60;99.90
1992;DHT22;997;48.448;8.924;2023-08-30T20:23:30;16.60;99.90
1992;DHT22;997;48.448;8.924;2023-08-30T20:25:56;16.60;99.90
1992;DHT22;997;48.448;8.924;2023-08-30T20:28:21;16.50;99.90
1992;DHT22;997;48.448;8.924;2023-08-30T20:30:51;16.50;99.90
1992;DHT22;997;48.448;8.924;2023-08-30T20:33:17;16.50;99.90
1992;DHT22;997;48.448;8.924;2023-08-30T20:35:43;16.50;99.90
1992;DHT22;997;48.448;8.924;2023-08-30T20:38:09;16.40;99.90
1992;DHT22;997;48.448;8.924;2023-08-30T20:40:42;16.40;99.90
1992;DHT22;997;48.448;8.924;2023-08-30T20:43:09;16.30;99.90
1992;DHT22;997;48.448;8.924;2023-08-30T20:45:34;16.40;99.90
1992;DHT22;997;48.448;8.924;2023-08-30T20:48:00;16.40;99.90
1992;DHT22;997;48.448;8.924;2023-08-30T20:50:33;16.40;99.90
1992;DHT22;997;48.448;8.924;2023-08-30T20:52:59;16.40;99.90
1992;DHT22;997;48.448;8.924;2023-08-30T21:12:32;16.60;99.90
